Woodstock, Illinois
Current Conditions -  °F | °C
As of 11:15 AM on Friday 24 Oct 2014 (Local Time) from KBUU Reporting Station
Overcast Overcast  
Wind Chill: 50°   Ceiling: 300
Heat Index: 50°   Visibility: 7mi
Dew Point: 49°   Wind: 5mph
Humidity: 97%   Direction: 220°SW
Pressure: 30.05"   Gusts: NA
Location:  42.31°N, 88.45°W
Report Text: KBUU 241615Z AUTO 22004KT 7SM OVC003 10/10 A3005 RMK AO2 T01000095
Loading
Personal Weather Stations






























Interactive Weather Map
Tropical Storm Tracking
New forecast layout! Learn more

10-Day Weather Forecast

Advertisements
Track Severe Weather on mobile